Time;durP1;ratioP1;P1;durP2;ratioP2;P2;SDS_P1;SDS_P2;PMS_P1;PMS_P2;Temp;Humidity;BMP_temperature;BMP_pressure;BME280_temperature;BME280_humidity;BME280_pressure;Samples;Min_cycle;Max_cycle;Signal;HPM_P1;HPM_P2
2021/12/27 00:00:20;;;;;;;29.35;15.05;;;6.00;99.90;;;;;;5053578;28;20485;-79
2021/12/27 00:02:49;;;;;;;24.17;14.68;;;6.10;99.90;;;;;;5052247;28;20025;-79
2021/12/27 00:05:15;;;;;;;22.58;13.98;;;6.10;99.90;;;;;;5052141;28;20036;-79
2021/12/27 00:07:43;;;;;;;24.65;14.32;;;6.10;99.90;;;;;;5052175;28;20021;-79
2021/12/27 00:10:10;;;;;;;22.33;14.60;;;6.10;99.90;;;;;;5052128;28;20036;-79
2021/12/27 00:12:36;;;;;;;25.23;15.13;;;6.00;99.90;;;;;;5052111;28;20397;-79
2021/12/27 00:15:03;;;;;;;16.83;10.43;;;6.00;99.90;;;;;;5053372;28;20025;-79
2021/12/27 00:17:28;;;;;;;20.65;12.70;;;5.90;99.90;;;;;;5053297;28;20025;-80
2021/12/27 00:19:56;;;;;;;23.52;13.95;;;5.90;99.90;;;;;;5052423;28;20370;-80
2021/12/27 00:22:22;;;;;;;22.30;13.55;;;5.90;99.90;;;;;;5051974;28;20473;-79
2021/12/27 00:24:48;;;;;;;18.42;11.45;;;6.00;99.90;;;;;;5051834;28;20025;-79
2021/12/27 00:27:18;;;;;;;23.10;13.50;;;5.90;99.90;;;;;;5053231;28;20070;-79
2021/12/27 00:29:45;;;;;;;29.08;14.52;;;5.90;99.90;;;;;;5053121;28;20095;-79
2021/12/27 00:32:11;;;;;;;21.98;13.55;;;5.80;99.90;;;;;;5051848;28;20362;-79
2021/12/27 00:34:37;;;;;;;20.77;13.80;;;5.80;99.90;;;;;;5053106;28;20052;-79
2021/12/27 00:37:08;;;;;;;21.73;14.10;;;5.80;99.90;;;;;;5051828;28;20036;-79
2021/12/27 00:39:34;;;;;;;21.48;13.60;;;5.80;99.90;;;;;;5053086;28;20079;-79
2021/12/27 00:42:01;;;;;;;23.30;13.52;;;5.80;99.90;;;;;;5052887;28;20041;-79
2021/12/27 00:44:26;;;;;;;19.95;13.40;;;5.80;99.90;;;;;;5052967;28;20047;-79
2021/12/27 00:46:53;;;;;;;24.15;15.05;;;5.80;99.90;;;;;;5051777;28;20017;-79
2021/12/27 00:49:19;;;;;;;21.75;12.90;;;5.80;99.90;;;;;;5051655;28;20064;-79
2021/12/27 00:51:44;;;;;;;18.02;11.55;;;5.80;99.90;;;;;;5052284;28;20048;-79
2021/12/27 00:54:10;;;;;;;16.67;11.05;;;5.70;99.90;;;;;;5057042;28;20452;-79
2021/12/27 00:56:36;;;;;;;12.40;8.95;;;5.70;99.90;;;;;;5055724;28;20029;-79
2021/12/27 00:59:02;;;;;;;13.65;9.23;;;5.60;99.90;;;;;;5056987;28;20036;-79
2021/12/27 01:01:28;;;;;;;17.42;11.48;;;5.50;99.90;;;;;;5055598;28;20021;-79
2021/12/27 01:03:53;;;;;;;18.75;11.98;;;5.50;99.90;;;;;;5056801;28;20037;-80
2021/12/27 01:06:19;;;;;;;20.15;11.75;;;5.40;99.90;;;;;;5055579;28;20032;-79
2021/12/27 01:08:45;;;;;;;18.15;11.63;;;5.40;99.90;;;;;;5055830;28;20440;-79
2021/12/27 01:13:58;;;;;;;21.10;12.48;;;5.40;99.90;;;;;;5057222;28;20025;-79
2021/12/27 01:16:24;;;;;;;15.60;9.88;;;5.40;99.90;;;;;;5056676;28;20021;-79
2021/12/27 01:18:51;;;;;;;11.35;7.95;;;5.40;99.90;;;;;;5055360;28;20487;-79
2021/12/27 01:21:20;;;;;;;14.98;10.13;;;5.30;99.90;;;;;;5056612;28;20416;-79
2021/12/27 01:23:47;;;;;;;17.45;10.77;;;5.30;99.90;;;;;;5056488;28;20021;-79
2021/12/27 01:26:13;;;;;;;11.45;7.85;;;5.30;99.90;;;;;;5055159;28;20043;-79
2021/12/27 01:28:40;;;;;;;13.55;9.35;;;5.30;99.90;;;;;;5056681;28;20036;-79
2021/12/27 01:31:06;;;;;;;11.57;8.32;;;5.20;99.90;;;;;;5055082;28;20021;-79
2021/12/27 01:33:32;;;;;;;14.73;9.15;;;5.20;99.90;;;;;;5056644;28;20025;-79
2021/12/27 01:35:59;;;;;;;15.20;9.98;;;5.20;99.90;;;;;;5055024;28;20071;-79
2021/12/27 01:38:25;;;;;;;13.60;8.85;;;5.20;99.90;;;;;;5054897;28;20496;-79
2021/12/27 01:40:53;;;;;;;20.23;11.70;;;5.20;99.90;;;;;;5054747;28;20081;-79
2021/12/27 01:43:29;;;;;;;15.02;10.30;;;5.10;99.90;;;;;;5056395;28;20029;-79
2021/12/27 01:46:04;;;;;;;17.50;10.57;;;5.10;99.90;;;;;;5054772;28;20032;-79
2021/12/27 01:48:36;;;;;;;13.23;8.35;;;5.10;99.90;;;;;;5054752;28;20013;-79
2021/12/27 01:51:05;;;;;;;12.10;8.35;;;5.10;99.90;;;;;;5054755;28;20025;-80
2021/12/27 01:53:36;;;;;;;14.50;7.13;;;5.20;99.90;;;;;;5054647;28;20021;-79
2021/12/27 01:56:03;;;;;;;14.63;9.75;;;5.20;99.90;;;;;;5054685;28;20021;-79
2021/12/27 01:58:29;;;;;;;12.75;7.80;;;5.20;99.90;;;;;;5054575;28;20032;-79
2021/12/27 02:00:57;;;;;;;17.75;8.93;;;5.10;99.90;;;;;;5055805;28;20025;-80
2021/12/27 02:03:26;;;;;;;10.68;7.93;;;5.10;99.90;;;;;;5055179;28;20029;-79
2021/12/27 02:05:53;;;;;;;13.27;9.15;;;5.10;99.90;;;;;;5055629;28;20029;-79
2021/12/27 02:08:19;;;;;;;11.27;8.70;;;5.20;99.90;;;;;;5054395;28;20147;-79
2021/12/27 02:10:45;;;;;;;10.95;7.35;;;5.20;99.90;;;;;;5055631;28;20029;-79
2021/12/27 02:13:11;;;;;;;11.82;8.60;;;5.20;99.90;;;;;;5055526;28;20103;-79
2021/12/27 02:15:37;;;;;;;14.88;9.88;;;5.20;99.90;;;;;;5054229;28;20031;-79
2021/12/27 02:18:04;;;;;;;12.93;8.88;;;5.20;99.90;;;;;;5054208;28;20512;-79
2021/12/27 02:20:35;;;;;;;11.05;8.48;;;5.20;99.90;;;;;;5054126;28;20112;-80
2021/12/27 02:23:11;;;;;;;15.60;9.43;;;5.30;99.90;;;;;;5054188;28;20143;-80
2021/12/27 02:25:37;;;;;;;15.02;10.20;;;5.30;99.90;;;;;;5055593;28;20477;-80
2021/12/27 02:28:07;;;;;;;9.02;6.70;;;5.30;99.90;;;;;;5054003;28;20044;-79
2021/12/27 02:30:33;;;;;;;10.82;7.65;;;5.30;99.90;;;;;;5055222;28;20028;-79
2021/12/27 02:33:05;;;;;;;12.77;9.43;;;5.30;99.90;;;;;;5053918;28;20115;-79
2021/12/27 02:35:39;;;;;;;15.90;10.48;;;5.30;99.90;;;;;;5055513;28;20021;-80
2021/12/27 02:38:09;;;;;;;10.65;7.78;;;5.30;99.90;;;;;;5053883;28;20116;-79
2021/12/27 02:40:37;;;;;;;11.45;7.97;;;5.30;99.90;;;;;;5054923;28;20041;-79
2021/12/27 02:43:07;;;;;;;12.98;8.13;;;5.30;99.90;;;;;;5053762;28;20024;-79
2021/12/27 02:45:44;;;;;;;15.80;10.25;;;5.40;99.90;;;;;;5054903;28;20116;-79
2021/12/27 02:48:11;;;;;;;17.75;11.27;;;5.40;99.90;;;;;;5053665;28;20025;-79
2021/12/27 02:50:38;;;;;;;13.27;8.80;;;5.50;99.90;;;;;;5054910;28;20028;-79
2021/12/27 02:53:05;;;;;;;14.63;9.70;;;5.50;99.90;;;;;;5053520;28;20021;-80
2021/12/27 02:55:31;;;;;;;18.85;10.65;;;5.40;99.90;;;;;;5053562;28;20504;-79
2021/12/27 02:57:57;;;;;;;17.75;10.98;;;5.40;99.90;;;;;;5053474;28;20057;-79
2021/12/27 03:00:28;;;;;;;16.42;9.82;;;5.40;99.90;;;;;;5054977;28;20381;-79
2021/12/27 03:02:56;;;;;;;11.30;8.15;;;5.40;99.90;;;;;;5054988;28;20032;-79
2021/12/27 03:05:25;;;;;;;15.48;10.93;;;5.40;99.90;;;;;;5054804;28;20028;-79
2021/12/27 03:07:52;;;;;;;11.27;8.30;;;5.40;99.90;;;;;;5053284;28;20024;-79
2021/12/27 03:10:26;;;;;;;12.07;8.82;;;5.30;99.90;;;;;;5053208;28;20120;-79
2021/12/27 03:12:54;;;;;;;15.55;10.10;;;5.30;99.90;;;;;;5054240;28;20043;-79
2021/12/27 03:15:23;;;;;;;17.20;11.07;;;5.30;99.90;;;;;;5052201;28;20057;-79
2021/12/27 03:17:51;;;;;;;19.02;11.45;;;5.30;99.90;;;;;;5054397;28;20029;-79
2021/12/27 03:20:18;;;;;;;18.15;11.27;;;5.30;99.90;;;;;;5054316;28;20033;-79
2021/12/27 03:22:45;;;;;;;19.15;12.05;;;5.40;99.90;;;;;;5052969;28;20433;-79
2021/12/27 03:25:20;;;;;;;17.10;11.70;;;5.50;99.90;;;;;;5052859;28;20025;-79
2021/12/27 03:27:46;;;;;;;16.85;10.70;;;5.40;99.90;;;;;;5053773;28;20543;-79
2021/12/27 03:30:22;;;;;;;17.70;11.73;;;5.40;99.90;;;;;;5052827;28;20119;-79
2021/12/27 03:32:49;;;;;;;18.63;12.75;;;5.30;99.90;;;;;;5052839;28;20028;-79
2021/12/27 03:35:24;;;;;;;12.82;9.45;;;5.20;99.90;;;;;;5052732;28;20029;-79
2021/12/27 03:37:51;;;;;;;19.80;12.23;;;5.20;99.90;;;;;;5052751;28;20068;-79
2021/12/27 03:40:19;;;;;;;16.27;11.02;;;5.20;99.90;;;;;;5052489;28;20508;-79
2021/12/27 03:42:49;;;;;;;14.90;10.70;;;5.20;99.90;;;;;;5052595;28;20032;-79
2021/12/27 03:45:21;;;;;;;19.38;13.35;;;5.10;99.90;;;;;;5052598;28;20075;-79
2021/12/27 03:47:48;;;;;;;14.27;9.45;;;5.10;99.90;;;;;;5053731;28;20048;-79
2021/12/27 03:50:15;;;;;;;17.30;12.02;;;5.10;99.90;;;;;;5052432;28;20044;-79
2021/12/27 03:52:40;;;;;;;19.23;11.50;;;5.10;99.90;;;;;;5053726;28;20468;-79
2021/12/27 03:55:07;;;;;;;16.33;11.75;;;5.10;99.90;;;;;;5053670;28;20104;-79
2021/12/27 03:57:35;;;;;;;17.85;12.02;;;5.10;99.90;;;;;;5053164;28;20123;-79
2021/12/27 04:00:30;;;;;;;23.70;13.63;;;5.20;99.90;;;;;;5053545;28;20071;-79
2021/12/27 04:03:00;;;;;;;25.15;12.77;;;5.20;99.90;;;;;;5053529;28;20029;-79
2021/12/27 04:05:27;;;;;;;22.05;13.23;;;5.20;99.90;;;;;;5052129;28;20029;-79
2021/12/27 04:08:01;;;;;;;16.38;11.15;;;5.20;99.90;;;;;;5052200;28;20028;-79
2021/12/27 04:10:27;;;;;;;15.60;10.02;;;5.20;99.90;;;;;;5053722;28;20027;-79
2021/12/27 04:12:54;;;;;;;16.98;9.80;;;5.20;99.90;;;;;;5052068;28;20033;-79
2021/12/27 04:15:20;;;;;;;15.35;9.70;;;5.10;99.90;;;;;;5053354;28;20033;-79
2021/12/27 04:17:45;;;;;;;14.93;9.90;;;5.10;99.90;;;;;;5052030;28;20051;-79
2021/12/27 04:20:11;;;;;;;11.65;8.48;;;5.10;99.90;;;;;;5052026;28;20036;-80
2021/12/27 04:22:37;;;;;;;14.20;10.43;;;5.10;99.90;;;;;;5053192;28;20508;-79
2021/12/27 04:25:04;;;;;;;16.45;10.35;;;5.20;99.90;;;;;;5051825;28;20094;-79
2021/12/27 04:27:30;;;;;;;11.35;8.40;;;5.20;99.90;;;;;;5053211;28;20025;-80
2021/12/27 04:29:55;;;;;;;12.65;8.98;;;5.20;99.90;;;;;;5053147;28;20523;-79
2021/12/27 04:32:22;;;;;;;16.17;9.82;;;5.30;99.90;;;;;;5053217;28;20021;-79
2021/12/27 04:34:47;;;;;;;13.82;10.10;;;5.30;99.90;;;;;;5053131;28;20075;-79
2021/12/27 04:37:13;;;;;;;13.55;9.38;;;5.30;99.90;;;;;;5051817;28;20431;-79
2021/12/27 04:39:39;;;;;;;14.45;9.93;;;5.30;99.90;;;;;;5051823;28;20029;-79
2021/12/27 04:42:07;;;;;;;15.05;9.48;;;5.30;99.90;;;;;;5052885;28;20531;-79
2021/12/27 04:44:33;;;;;;;12.75;9.18;;;5.30;99.90;;;;;;5052927;28;20119;-79
2021/12/27 04:46:59;;;;;;;12.02;8.55;;;5.30;99.90;;;;;;5051714;28;20389;-79
2021/12/27 04:49:25;;;;;;;14.07;9.70;;;5.40;99.90;;;;;;5051580;28;20017;-79
2021/12/27 04:51:50;;;;;;;13.85;9.57;;;5.40;99.90;;;;;;5052955;28;20021;-79
2021/12/27 04:54:16;;;;;;;13.80;9.70;;;5.40;99.90;;;;;;5052911;28;20032;-79
2021/12/27 04:56:42;;;;;;;15.52;9.38;;;5.40;99.90;;;;;;5052843;28;20025;-79
2021/12/27 04:59:08;;;;;;;13.35;9.27;;;5.40;99.90;;;;;;5051608;28;20040;-79
2021/12/27 05:01:34;;;;;;;13.25;9.10;;;5.40;99.90;;;;;;5051567;28;20029;-79
2021/12/27 05:03:59;;;;;;;11.85;8.70;;;5.40;99.90;;;;;;5051501;28;20028;-79
2021/12/27 05:06:27;;;;;;;13.40;9.05;;;5.40;99.90;;;;;;5051558;28;20029;-79
2021/12/27 05:08:53;;;;;;;13.77;10.00;;;5.30;99.90;;;;;;5051556;28;20048;-79
2021/12/27 05:11:20;;;;;;;12.30;8.65;;;5.30;99.90;;;;;;5052781;28;20500;-79
2021/12/27 05:13:46;;;;;;;12.50;9.68;;;5.30;99.90;;;;;;5052726;28;20036;-79
2021/12/27 05:16:12;;;;;;;16.27;9.45;;;5.30;99.90;;;;;;5052668;28;20021;-79
2021/12/27 05:18:38;;;;;;;13.00;9.02;;;5.30;99.90;;;;;;5051403;28;20074;-79
2021/12/27 05:21:04;;;;;;;12.38;9.05;;;5.20;99.90;;;;;;5052652;28;20389;-79
2021/12/27 05:23:31;;;;;;;15.20;9.50;;;5.10;99.90;;;;;;5051318;28;20029;-79
2021/12/27 05:25:57;;;;;;;13.15;9.52;;;5.10;99.90;;;;;;5051279;28;20029;-79
2021/12/27 05:28:23;;;;;;;13.90;8.88;;;5.10;99.90;;;;;;5052586;28;20096;-79
2021/12/27 05:30:51;;;;;;;12.90;8.18;;;5.10;99.90;;;;;;5052575;28;20512;-79
2021/12/27 05:33:18;;;;;;;15.10;9.43;;;5.10;99.90;;;;;;5051254;28;20022;-79
2021/12/27 05:35:45;;;;;;;15.52;9.05;;;5.10;99.90;;;;;;5052503;28;20036;-79
2021/12/27 05:38:10;;;;;;;11.93;7.60;;;5.10;99.90;;;;;;5052431;28;20036;-79
2021/12/27 05:40:37;;;;;;;13.07;8.25;;;5.10;99.90;;;;;;5054716;28;20041;-79
2021/12/27 05:43:03;;;;;;;12.23;8.55;;;5.00;99.90;;;;;;5054960;28;20393;-79
2021/12/27 05:45:29;;;;;;;10.38;7.40;;;5.00;99.90;;;;;;5054770;28;20025;-79
2021/12/27 05:47:55;;;;;;;11.00;8.05;;;5.00;99.90;;;;;;5054700;28;20481;-79
2021/12/27 05:50:20;;;;;;;13.73;9.18;;;5.00;99.90;;;;;;5054743;28;20079;-79
2021/12/27 05:52:46;;;;;;;12.45;8.85;;;5.00;99.90;;;;;;5054687;28;20545;-79
2021/12/27 05:55:13;;;;;;;13.73;8.68;;;4.90;99.90;;;;;;5054631;28;20091;-80
2021/12/27 05:57:39;;;;;;;14.18;9.52;;;4.90;99.90;;;;;;5054612;28;20389;-79
2021/12/27 06:00:08;;;;;;;14.68;10.23;;;5.00;99.90;;;;;;5056107;28;20032;-79
2021/12/27 06:02:34;;;;;;;12.93;8.50;;;4.90;99.90;;;;;;5055783;28;20063;-79
2021/12/27 06:05:00;;;;;;;17.17;9.32;;;4.90;99.90;;;;;;5054440;28;20400;-79
2021/12/27 06:07:25;;;;;;;13.68;7.93;;;4.90;99.90;;;;;;5054401;28;20480;-79
2021/12/27 06:09:51;;;;;;;12.65;8.45;;;4.90;99.90;;;;;;5054545;28;20025;-79
2021/12/27 06:12:17;;;;;;;11.15;7.43;;;4.90;99.90;;;;;;5054346;28;20025;-79
2021/12/27 06:14:43;;;;;;;10.43;7.32;;;4.80;99.90;;;;;;5054289;28;20021;-79
2021/12/27 06:17:08;;;;;;;12.40;8.52;;;4.80;99.90;;;;;;5055854;28;20095;-79
2021/12/27 06:19:34;;;;;;;10.95;7.57;;;4.70;99.90;;;;;;5054224;28;20029;-79
2021/12/27 06:22:03;;;;;;;10.93;7.05;;;4.70;99.90;;;;;;5055470;28;20034;-79
2021/12/27 06:24:29;;;;;;;9.27;6.90;;;4.70;99.90;;;;;;5054045;28;20120;-79
2021/12/27 06:26:55;;;;;;;12.15;8.00;;;4.60;99.90;;;;;;5054093;28;20064;-79
2021/12/27 06:29:21;;;;;;;10.38;7.40;;;4.60;99.90;;;;;;5055248;28;20021;-79
2021/12/27 06:31:46;;;;;;;15.10;10.02;;;4.60;99.90;;;;;;5053984;28;20021;-79
2021/12/27 06:34:14;;;;;;;14.02;8.80;;;4.50;99.90;;;;;;5053863;28;20500;-79
2021/12/27 06:36:39;;;;;;;13.35;8.68;;;4.50;99.90;;;;;;5055128;28;20025;-80
2021/12/27 06:39:05;;;;;;;15.18;8.93;;;4.40;99.90;;;;;;5053851;28;20021;-80
2021/12/27 06:41:32;;;;;;;8.98;6.78;;;4.40;99.90;;;;;;5054980;28;20120;-79
2021/12/27 06:43:57;;;;;;;11.77;8.27;;;4.30;99.90;;;;;;5053710;28;20032;-79
2021/12/27 06:46:23;;;;;;;9.68;6.82;;;4.30;99.90;;;;;;5053622;28;20036;-79
2021/12/27 06:48:49;;;;;;;11.68;8.13;;;4.30;99.90;;;;;;5053505;28;20053;-79
2021/12/27 06:51:15;;;;;;;13.80;9.18;;;4.30;99.90;;;;;;5053526;28;20028;-79
2021/12/27 06:53:41;;;;;;;14.20;9.48;;;4.20;99.90;;;;;;5053532;28;20021;-79
2021/12/27 06:56:06;;;;;;;11.57;7.72;;;4.20;99.90;;;;;;5054740;28;20485;-79
2021/12/27 06:58:32;;;;;;;10.13;7.53;;;4.30;99.90;;;;;;5053496;28;20497;-79
2021/12/27 07:00:58;;;;;;;12.18;7.78;;;4.40;99.90;;;;;;5054690;28;20105;-79
2021/12/27 07:03:24;;;;;;;11.50;7.75;;;4.40;99.90;;;;;;5053288;28;20025;-79
2021/12/27 07:05:50;;;;;;;12.10;8.20;;;4.40;99.90;;;;;;5053241;28;20029;-79
2021/12/27 07:08:16;;;;;;;14.05;10.18;;;4.40;99.90;;;;;;5053285;28;20029;-80
2021/12/27 07:10:42;;;;;;;11.98;8.55;;;4.40;99.90;;;;;;5053460;28;20021;-81
2021/12/27 07:13:09;;;;;;;11.27;8.13;;;4.40;99.90;;;;;;5053162;28;20036;-79
2021/12/27 07:15:41;;;;;;;17.95;9.95;;;4.40;99.90;;;;;;5053101;28;20029;-79
2021/12/27 07:18:09;;;;;;;13.50;8.50;;;4.40;99.90;;;;;;5054661;28;20028;-79
2021/12/27 07:20:36;;;;;;;15.00;9.27;;;4.40;99.90;;;;;;5053022;28;20021;-79
2021/12/27 07:23:03;;;;;;;14.98;9.65;;;4.30;99.90;;;;;;5052992;28;20111;-79
2021/12/27 07:25:29;;;;;;;10.38;7.45;;;4.30;99.90;;;;;;5052803;28;20424;-79
2021/12/27 07:27:55;;;;;;;25.55;10.77;;;4.20;99.90;;;;;;5054161;28;20025;-79
2021/12/27 07:30:21;;;;;;;16.58;10.48;;;4.30;99.90;;;;;;5054083;28;20039;-79
2021/12/27 07:32:46;;;;;;;11.68;8.00;;;4.30;99.90;;;;;;5054043;28;20082;-79
2021/12/27 07:35:12;;;;;;;12.98;8.02;;;4.40;99.90;;;;;;5054299;28;20032;-79
2021/12/27 07:37:39;;;;;;;17.05;10.55;;;4.40;99.90;;;;;;5052678;28;20021;-79
2021/12/27 07:40:06;;;;;;;16.48;9.57;;;4.50;99.90;;;;;;5052358;28;20029;-79
2021/12/27 07:42:32;;;;;;;16.80;10.93;;;4.70;99.90;;;;;;5052643;28;20493;-79
2021/12/27 07:44:58;;;;;;;16.77;9.57;;;4.70;99.90;;;;;;5052739;28;20036;-78
2021/12/27 07:47:25;;;;;;;27.70;18.45;;;4.80;99.90;;;;;;5052310;28;20408;-77
2021/12/27 07:49:50;;;;;;;23.50;12.98;;;4.80;99.90;;;;;;5052398;28;20025;-78
2021/12/27 07:52:16;;;;;;;57.35;36.20;;;4.80;99.90;;;;;;5052375;28;20465;-78
2021/12/27 07:54:42;;;;;;;18.90;12.43;;;4.60;99.90;;;;;;5053660;28;20100;-78
2021/12/27 07:57:08;;;;;;;17.90;11.45;;;4.60;99.90;;;;;;5052343;28;20116;-78
2021/12/27 07:59:34;;;;;;;17.70;11.25;;;4.60;99.90;;;;;;5054077;28;20029;-78
2021/12/27 08:01:59;;;;;;;14.45;9.48;;;4.70;99.90;;;;;;5053075;28;20021;-78
2021/12/27 08:04:25;;;;;;;16.15;10.27;;;4.80;99.90;;;;;;5053447;28;20530;-78
2021/12/27 08:06:51;;;;;;;17.38;11.15;;;4.90;99.90;;;;;;5053722;28;20074;-77
2021/12/27 08:09:17;;;;;;;17.10;11.18;;;5.00;99.90;;;;;;5052144;28;20021;-78
2021/12/27 08:11:43;;;;;;;17.00;11.25;;;5.30;99.90;;;;;;5052131;28;20095;-78
2021/12/27 08:14:08;;;;;;;14.35;9.13;;;5.40;99.90;;;;;;5053312;28;20023;-78
2021/12/27 08:16:34;;;;;;;14.25;9.52;;;5.50;99.90;;;;;;5052092;28;20492;-78
2021/12/27 08:19:00;;;;;;;15.05;9.93;;;5.60;99.90;;;;;;5053319;28;20021;-77
2021/12/27 08:21:29;;;;;;;15.70;9.85;;;5.70;99.90;;;;;;5051949;28;20392;-77
2021/12/27 08:23:54;;;;;;;13.05;8.80;;;5.80;99.90;;;;;;5053133;28;20020;-77
2021/12/27 08:26:20;;;;;;;13.88;8.82;;;5.90;99.90;;;;;;5053046;28;20029;-77
2021/12/27 08:28:50;;;;;;;14.63;9.32;;;6.10;99.90;;;;;;5051856;28;20116;-77
2021/12/27 08:31:15;;;;;;;12.68;8.85;;;6.10;99.90;;;;;;5053040;28;20055;-78
2021/12/27 08:33:41;;;;;;;17.98;10.05;;;6.20;99.90;;;;;;5051809;28;20048;-77
2021/12/27 08:36:07;;;;;;;16.35;9.80;;;6.30;99.90;;;;;;5053092;28;20021;-78
2021/12/27 08:38:33;;;;;;;13.02;8.90;;;6.30;99.90;;;;;;5051773;28;20127;-77
2021/12/27 08:40:59;;;;;;;13.75;8.52;;;6.40;99.90;;;;;;5051473;28;20390;-77
2021/12/27 08:43:25;;;;;;;12.45;8.23;;;6.30;99.90;;;;;;5053016;28;20154;-78
2021/12/27 08:45:52;;;;;;;14.88;9.35;;;6.40;99.90;;;;;;5051597;28;20033;-77
2021/12/27 08:48:18;;;;;;;13.90;8.15;;;6.50;99.90;;;;;;5051611;28;20032;-76
2021/12/27 08:50:44;;;;;;;12.32;7.78;;;6.60;99.90;;;;;;5051619;28;20167;-77
2021/12/27 08:53:10;;;;;;;12.52;8.10;;;6.70;99.90;;;;;;5051641;28;20055;-77
2021/12/27 08:55:37;;;;;;;12.60;8.23;;;6.70;99.90;;;;;;5051578;28;20029;-77
2021/12/27 08:58:04;;;;;;;13.13;8.27;;;6.70;99.90;;;;;;5051616;28;20032;-77
2021/12/27 09:00:29;;;;;;;13.25;8.60;;;6.70;99.90;;;;;;5052869;28;20481;-77
2021/12/27 09:02:55;;;;;;;15.98;9.45;;;6.80;99.90;;;;;;5051632;28;20116;-77
2021/12/27 09:05:21;;;;;;;13.23;9.07;;;7.00;99.90;;;;;;5052708;28;20025;-77
2021/12/27 09:07:47;;;;;;;13.25;8.93;;;7.00;99.90;;;;;;5052864;28;20024;-77
2021/12/27 09:10:13;;;;;;;15.90;9.55;;;7.00;99.90;;;;;;5051468;28;20025;-77
2021/12/27 09:12:40;;;;;;;14.88;9.43;;;6.90;99.90;;;;;;5053162;28;20021;-77
2021/12/27 09:15:07;;;;;;;14.65;9.07;;;6.90;99.90;;;;;;5055404;28;20032;-77
2021/12/27 09:17:33;;;;;;;15.10;9.63;;;6.80;99.90;;;;;;5056647;28;20032;-77
2021/12/27 09:19:59;;;;;;;15.13;9.68;;;6.80;99.90;;;;;;5055340;28;20036;-77
2021/12/27 09:22:25;;;;;;;13.43;9.18;;;6.90;99.90;;;;;;5055324;28;20481;-77
2021/12/27 09:24:51;;;;;;;15.27;9.73;;;7.10;99.90;;;;;;5055207;28;20112;-77
2021/12/27 09:27:17;;;;;;;14.70;9.82;;;7.40;99.90;;;;;;5055243;28;20029;-77
2021/12/27 09:29:43;;;;;;;15.65;9.07;;;7.50;99.90;;;;;;5055179;28;20029;-77
2021/12/27 09:32:13;;;;;;;15.60;9.63;;;7.50;99.90;;;;;;5055192;28;20108;-78
2021/12/27 09:34:39;;;;;;;17.80;10.50;;;7.30;99.90;;;;;;5056303;28;20219;-78
2021/12/27 09:37:06;;;;;;;16.60;10.45;;;7.00;99.90;;;;;;5056220;28;20107;-78
2021/12/27 09:39:34;;;;;;;19.65;11.18;;;6.90;99.90;;;;;;5056128;28;20037;-77
2021/12/27 09:42:01;;;;;;;14.95;9.93;;;6.90;99.90;;;;;;5054618;28;20053;-77
2021/12/27 09:44:27;;;;;;;16.00;9.90;;;7.10;99.90;;;;;;5054651;28;20118;-77
2021/12/27 09:46:53;;;;;;;16.13;9.93;;;7.40;99.90;;;;;;5054710;28;20044;-78
2021/12/27 09:49:20;;;;;;;14.15;9.20;;;7.50;99.90;;;;;;5054686;28;20507;-77
2021/12/27 09:51:46;;;;;;;14.18;8.98;;;7.70;99.90;;;;;;5054728;28;20032;-78
2021/12/27 09:54:13;;;;;;;13.43;8.68;;;7.80;99.90;;;;;;5054657;28;20029;-78
2021/12/27 09:56:40;;;;;;;13.07;8.63;;;7.80;99.90;;;;;;5056145;28;20017;-77
2021/12/27 09:59:06;;;;;;;16.52;8.55;;;7.90;99.90;;;;;;5054644;28;20033;-77
2021/12/27 10:01:32;;;;;;;13.57;8.32;;;8.00;99.90;;;;;;5054535;28;20095;-77
2021/12/27 10:04:00;;;;;;;13.27;8.10;;;7.80;99.90;;;;;;5054495;28;20064;-78
2021/12/27 10:06:27;;;;;;;11.95;7.93;;;7.70;99.90;;;;;;5054558;28;20480;-78
2021/12/27 10:08:56;;;;;;;14.23;8.10;;;7.70;99.90;;;;;;5054401;28;20078;-77
2021/12/27 10:11:30;;;;;;;14.38;8.88;;;7.60;99.90;;;;;;5055614;28;20021;-78
2021/12/27 10:14:13;;;;;;;14.43;7.97;;;7.30;99.90;;;;;;5055940;28;20017;-78
2021/12/27 10:16:42;;;;;;;15.27;8.70;;;7.20;99.90;;;;;;5054257;28;20040;-78
2021/12/27 10:19:10;;;;;;;14.20;9.02;;;7.10;99.90;;;;;;5054206;28;20393;-77
2021/12/27 10:21:41;;;;;;;17.27;9.82;;;7.10;99.90;;;;;;5054061;28;20025;-77
2021/12/27 10:24:28;;;;;;;14.68;8.30;;;7.10;99.90;;;;;;5053711;28;20029;-78
2021/12/27 10:26:56;;;;;;;14.50;8.88;;;7.00;99.90;;;;;;5054073;28;20037;-78
2021/12/27 10:29:26;;;;;;;13.07;8.70;;;7.00;99.90;;;;;;5055299;28;20024;-78
2021/12/27 10:31:55;;;;;;;11.32;7.57;;;7.00;99.90;;;;;;5053968;28;20021;-78
2021/12/27 10:34:23;;;;;;;13.27;8.57;;;7.10;99.90;;;;;;5053927;28;20498;-79
2021/12/27 10:37:03;;;;;;;17.90;9.32;;;7.10;99.90;;;;;;5053944;28;20082;-78
2021/12/27 10:39:49;;;;;;;15.45;8.00;;;7.20;99.90;;;;;;5053745;28;20025;-78
2021/12/27 10:42:22;;;;;;;11.23;7.57;;;7.30;99.90;;;;;;5055430;28;20505;-79
2021/12/27 10:44:51;;;;;;;13.98;7.95;;;7.40;99.90;;;;;;5053743;28;20083;-79
2021/12/27 10:47:30;;;;;;;12.23;7.82;;;7.30;99.90;;;;;;5054845;28;20025;-78
2021/12/27 10:50:03;;;;;;;13.85;8.38;;;7.30;99.90;;;;;;5054726;28;20024;-78
2021/12/27 10:52:49;;;;;;;14.23;8.05;;;7.30;99.90;;;;;;5054149;28;20017;-78
2021/12/27 10:55:20;;;;;;;13.82;8.27;;;7.30;99.90;;;;;;5053479;28;20086;-78
2021/12/27 10:57:47;;;;;;;13.50;8.48;;;7.30;99.90;;;;;;5053505;28;20021;-78
2021/12/27 11:00:25;;;;;;;12.63;8.13;;;7.20;99.90;;;;;;5053423;28;20036;-78
2021/12/27 11:02:51;;;;;;;15.23;8.55;;;7.30;99.90;;;;;;5053473;28;20112;-78
2021/12/27 11:05:23;;;;;;;12.55;8.27;;;7.20;99.90;;;;;;5053309;28;20481;-78
2021/12/27 11:07:51;;;;;;;17.17;8.25;;;7.20;99.90;;;;;;5053277;28;20071;-78
2021/12/27 11:10:17;;;;;;;12.40;7.07;;;7.20;99.90;;;;;;5053239;28;20479;-78
2021/12/27 11:12:42;;;;;;;14.50;8.30;;;7.20;99.90;;;;;;5054436;28;20103;-78
2021/12/27 11:15:10;;;;;;;11.25;7.95;;;7.20;99.90;;;;;;5053114;28;20021;-77
2021/12/27 11:17:38;;;;;;;13.93;8.25;;;7.20;99.90;;;;;;5054354;28;20024;-78
2021/12/27 11:20:08;;;;;;;12.20;7.72;;;7.20;99.90;;;;;;5053050;28;20552;-78
2021/12/27 11:22:42;;;;;;;11.98;7.90;;;7.20;99.90;;;;;;5053032;28;20028;-78
2021/12/27 11:25:25;;;;;;;16.17;9.15;;;7.20;99.90;;;;;;5053000;28;20059;-78
2021/12/27 11:27:51;;;;;;;11.63;7.93;;;7.20;99.90;;;;;;5052965;28;20485;-78
2021/12/27 11:30:23;;;;;;;13.43;8.32;;;7.20;99.90;;;;;;5052798;28;20024;-78
2021/12/27 11:33:12;;;;;;;10.10;6.88;;;7.20;99.90;;;;;;5052837;28;20111;-77
2021/12/27 11:35:59;;;;;;;13.38;7.78;;;7.30;99.90;;;;;;5052031;28;20040;-78
2021/12/27 11:38:38;;;;;;;13.77;7.32;;;7.50;99.90;;;;;;5053915;28;20025;-78
2021/12/27 11:41:07;;;;;;;9.35;6.68;;;7.60;99.90;;;;;;5052405;28;20049;-78
2021/12/27 11:43:51;;;;;;;11.20;7.18;;;7.60;99.90;;;;;;5053843;28;20596;-78
2021/12/27 11:46:17;;;;;;;11.57;6.25;;;7.70;99.90;;;;;;5053969;28;20064;-78
2021/12/27 11:48:52;;;;;;;10.25;6.43;;;7.70;99.90;;;;;;5052372;28;20397;-78
2021/12/27 11:51:28;;;;;;;11.68;6.65;;;7.70;99.90;;;;;;5052441;28;20560;-78
2021/12/27 11:53:55;;;;;;;10.32;6.72;;;7.70;99.90;;;;;;5052415;28;20036;-78
2021/12/27 11:56:39;;;;;;;8.70;6.15;;;7.70;99.90;;;;;;5053611;28;20025;-78
2021/12/27 11:59:28;;;;;;;8.98;5.70;;;7.70;99.90;;;;;;5052224;28;20116;-78
2021/12/27 12:01:59;;;;;;;10.52;6.82;;;7.70;99.90;;;;;;5052290;28;20032;-78
2021/12/27 12:04:44;;;;;;;8.63;6.55;;;7.80;99.90;;;;;;5052154;28;20040;-78
2021/12/27 12:07:31;;;;;;;10.02;6.90;;;7.90;99.90;;;;;;5053423;28;20017;-78
2021/12/27 12:09:57;;;;;;;9.93;6.35;;;7.90;99.90;;;;;;5053483;28;20500;-78
2021/12/27 12:12:23;;;;;;;7.68;5.40;;;7.90;99.90;;;;;;5051950;28;20021;-78
2021/12/27 12:14:58;;;;;;;9.35;5.78;;;7.90;99.90;;;;;;5053221;28;20435;-78
2021/12/27 12:17:41;;;;;;;7.15;5.03;;;8.10;99.90;;;;;;5052224;28;20032;-78
2021/12/27 12:20:30;;;;;;;9.75;6.00;;;8.10;99.90;;;;;;5053266;28;20021;-78
2021/12/27 12:23:07;;;;;;;9.32;5.85;;;8.20;99.90;;;;;;5051890;28;20496;-78
2021/12/27 12:25:34;;;;;;;10.55;5.28;;;8.20;99.90;;;;;;5051756;28;20036;-78
2021/12/27 12:28:01;;;;;;;10.90;5.40;;;8.30;99.90;;;;;;5053396;28;20031;-78
2021/12/27 12:30:41;;;;;;;7.88;5.10;;;8.30;99.90;;;;;;5051835;28;20027;-78
2021/12/27 12:33:15;;;;;;;8.57;4.85;;;8.40;99.90;;;;;;5051860;28;20021;-78
2021/12/27 12:35:48;;;;;;;7.70;5.00;;;8.30;99.90;;;;;;5051768;28;20488;-78
2021/12/27 12:38:32;;;;;;;7.60;4.70;;;8.30;99.90;;;;;;5051715;28;20434;-78
2021/12/27 12:41:05;;;;;;;9.15;4.68;;;8.20;99.90;;;;;;5051586;28;20053;-78
2021/12/27 12:43:35;;;;;;;6.95;5.38;;;8.10;99.90;;;;;;5051657;28;20091;-78
2021/12/27 12:46:38;;;;;;;6.60;4.55;;;7.90;99.90;;;;;;5051505;28;20489;-78
2021/12/27 12:49:16;;;;;;;7.75;4.53;;;7.90;99.90;;;;;;5054601;28;20090;-78
2021/12/27 12:51:49;;;;;;;11.27;6.57;;;7.80;99.90;;;;;;5058830;28;20443;-78
2021/12/27 12:54:26;;;;;;;6.22;4.65;;;7.80;99.90;;;;;;5058510;28;20032;-78